Time;durP1;ratioP1;P1;durP2;ratioP2;P2;SDS_P1;SDS_P2;PMS_P1;PMS_P2;Temp;Humidity;BMP_temperature;BMP_pressure;BME280_temperature;BME280_humidity;BME280_pressure;Samples;Min_cycle;Max_cycle;Signal;HPM_P1;HPM_P2
2022/03/09 00:01:38;;;;;;;7.37;4.00;;;3.10;72.70;;;;;;5073001;28;20043;-81
2022/03/09 00:04:05;;;;;;;7.00;4.10;;;3.10;72.70;;;;;;5086468;28;20395;-81
2022/03/09 00:06:31;;;;;;;10.03;5.50;;;3.00;72.70;;;;;;5085499;28;20368;-81
2022/03/09 00:08:58;;;;;;;7.77;4.13;;;3.00;72.80;;;;;;5049925;28;20035;-80
2022/03/09 00:11:24;;;;;;;10.93;4.50;;;2.90;73.10;;;;;;5061676;28;20734;-81
2022/03/09 00:13:51;;;;;;;8.20;4.67;;;2.90;73.00;;;;;;5062920;28;20051;-79
2022/03/09 00:16:17;;;;;;;10.77;5.27;;;2.90;73.00;;;;;;5067844;28;20423;-79
2022/03/09 00:18:44;;;;;;;10.80;5.67;;;2.80;73.10;;;;;;5047322;28;20036;-79
2022/03/09 00:21:10;;;;;;;14.13;7.77;;;2.80;73.20;;;;;;5053198;28;20407;-80
2022/03/09 00:23:37;;;;;;;11.83;6.37;;;2.70;73.20;;;;;;5049110;28;20039;-80
2022/03/09 00:26:04;;;;;;;14.73;6.70;;;2.70;73.30;;;;;;5067857;28;20020;-80
2022/03/09 00:28:31;;;;;;;14.33;7.83;;;2.70;73.30;;;;;;5063233;28;20579;-80
2022/03/09 00:30:58;;;;;;;11.60;6.13;;;2.60;73.30;;;;;;5051205;28;20484;-80
2022/03/09 00:33:25;;;;;;;7.17;4.03;;;2.60;73.40;;;;;;5046368;28;20039;-80
2022/03/09 00:35:51;;;;;;;8.50;4.83;;;2.60;73.40;;;;;;5065995;28;20480;-80
2022/03/09 00:38:17;;;;;;;8.47;4.60;;;2.50;73.60;;;;;;5052598;28;20050;-79
2022/03/09 00:40:47;;;;;;;9.20;4.93;;;2.40;73.60;;;;;;5049648;28;20051;-79
2022/03/09 00:43:17;;;;;;;8.33;4.30;;;2.40;73.90;;;;;;5088144;28;20051;-79
2022/03/09 00:45:44;;;;;;;7.30;4.33;;;2.40;73.90;;;;;;5054244;28;20032;-79
2022/03/09 00:48:11;;;;;;;7.87;4.17;;;2.40;74.00;;;;;;5098306;27;20382;-79
2022/03/09 00:50:37;;;;;;;8.53;4.37;;;2.30;74.00;;;;;;5069105;28;20047;-79
2022/03/09 00:53:04;;;;;;;7.93;3.67;;;2.30;74.20;;;;;;5053149;28;20030;-80
2022/03/09 00:55:31;;;;;;;9.00;3.67;;;2.20;74.20;;;;;;5037651;28;20032;-79
2022/03/09 00:57:57;;;;;;;7.73;4.10;;;2.20;74.20;;;;;;5065870;28;20024;-80
2022/03/09 01:00:24;;;;;;;7.40;3.90;;;2.20;74.40;;;;;;5084338;28;20379;-79
2022/03/09 01:02:50;;;;;;;7.30;3.57;;;2.20;74.40;;;;;;5049544;28;21376;-79
2022/03/09 01:05:17;;;;;;;8.53;4.43;;;2.10;74.60;;;;;;5051019;28;20040;-79
2022/03/09 01:07:43;;;;;;;9.00;4.10;;;2.10;74.70;;;;;;5069356;28;20032;-79
2022/03/09 01:10:11;;;;;;;7.77;3.30;;;2.10;74.70;;;;;;5086679;28;20051;-80
2022/03/09 01:12:38;;;;;;;5.50;3.20;;;2.10;74.70;;;;;;5067752;28;20395;-79
2022/03/09 01:15:05;;;;;;;7.10;3.50;;;2.20;74.70;;;;;;5050691;28;20036;-79
2022/03/09 01:17:32;;;;;;;7.80;4.17;;;2.10;74.80;;;;;;5070500;28;20024;-80
2022/03/09 01:19:59;;;;;;;8.50;3.90;;;2.10;74.80;;;;;;5069246;28;20035;-79
2022/03/09 01:22:25;;;;;;;8.63;4.03;;;2.10;74.90;;;;;;5072014;28;20319;-79
2022/03/09 01:24:52;;;;;;;7.93;4.27;;;2.00;75.00;;;;;;5049094;28;20395;-79
2022/03/09 01:27:18;;;;;;;7.77;3.90;;;2.00;75.10;;;;;;5085300;28;20040;-79
2022/03/09 01:29:45;;;;;;;8.00;4.30;;;2.00;75.20;;;;;;5065187;28;20051;-79
2022/03/09 01:32:11;;;;;;;7.77;4.07;;;1.90;75.40;;;;;;5033665;28;20020;-79
2022/03/09 01:34:38;;;;;;;8.73;4.50;;;1.90;75.60;;;;;;5066430;28;20020;-79
2022/03/09 01:37:04;;;;;;;8.33;3.53;;;1.90;75.70;;;;;;5081257;28;20054;-79
2022/03/09 01:39:30;;;;;;;7.93;4.10;;;1.90;75.70;;;;;;5080055;28;20521;-79
2022/03/09 01:41:57;;;;;;;7.10;3.60;;;1.90;75.70;;;;;;5067419;28;20036;-79
2022/03/09 01:44:25;;;;;;;8.13;4.10;;;1.80;75.70;;;;;;5086134;28;20032;-79
2022/03/09 01:46:54;;;;;;;6.90;3.93;;;1.80;75.80;;;;;;5065727;28;20137;-79
2022/03/09 01:49:22;;;;;;;7.13;3.53;;;1.80;75.80;;;;;;5085476;28;20028;-79
2022/03/09 01:51:51;;;;;;;6.73;3.73;;;1.80;75.90;;;;;;5068676;28;20043;-79
2022/03/09 01:54:18;;;;;;;9.00;4.47;;;1.80;76.00;;;;;;5068338;28;20367;-79
2022/03/09 01:56:46;;;;;;;7.50;4.13;;;1.80;76.00;;;;;;5053726;28;20131;-79
2022/03/09 01:59:20;;;;;;;9.43;4.20;;;1.80;76.10;;;;;;5052544;28;20035;-79
2022/03/09 02:01:47;;;;;;;12.73;4.67;;;1.80;76.20;;;;;;5064099;28;20036;-79
2022/03/09 02:04:13;;;;;;;10.27;5.30;;;1.80;76.30;;;;;;5051255;28;20028;-80
2022/03/09 02:06:40;;;;;;;9.10;3.97;;;1.80;76.30;;;;;;5085132;28;20039;-79
2022/03/09 02:11:54;;;;;;;7.17;4.03;;;1.80;77.00;;;;;;5084021;28;20031;-79
2022/03/09 02:14:29;;;;;;;7.57;4.37;;;1.80;76.40;;;;;;5080579;28;20021;-80
2022/03/09 02:16:57;;;;;;;8.00;4.57;;;1.80;76.50;;;;;;5064915;28;20050;-79
2022/03/09 02:19:24;;;;;;;9.17;4.20;;;1.80;76.60;;;;;;5066935;28;20037;-80
2022/03/09 02:21:55;;;;;;;7.40;4.67;;;1.70;76.70;;;;;;5034593;28;20035;-79
2022/03/09 02:24:22;;;;;;;7.53;3.83;;;1.70;76.70;;;;;;5069134;28;20037;-79
2022/03/09 02:26:49;;;;;;;8.43;3.83;;;1.70;76.70;;;;;;5049793;28;20040;-79
2022/03/09 02:29:16;;;;;;;5.53;2.73;;;1.70;76.80;;;;;;5084325;28;20049;-81
2022/03/09 02:31:43;;;;;;;5.30;3.03;;;1.70;76.70;;;;;;5052935;28;20358;-81
2022/03/09 02:34:09;;;;;;;6.17;3.27;;;1.70;76.80;;;;;;5068456;28;20020;-80
2022/03/09 02:36:36;;;;;;;9.13;4.03;;;1.70;76.80;;;;;;5067047;28;20094;-80
2022/03/09 02:39:03;;;;;;;6.10;3.13;;;1.70;76.80;;;;;;5067045;28;20032;-81
2022/03/09 02:41:33;;;;;;;9.07;4.13;;;1.70;76.80;;;;;;5049346;28;20649;-81
2022/03/09 02:44:01;;;;;;;6.00;3.80;;;1.60;77.00;;;;;;5065141;28;20491;-81
2022/03/09 02:46:28;;;;;;;7.40;3.30;;;1.60;77.10;;;;;;5052789;28;20394;-81
2022/03/09 02:48:55;;;;;;;7.43;3.90;;;1.50;77.00;;;;;;5067132;28;20020;-81
2022/03/09 02:51:22;;;;;;;5.07;2.70;;;1.50;77.10;;;;;;5084539;28;20383;-81
2022/03/09 02:53:48;;;;;;;7.90;3.43;;;1.50;77.10;;;;;;5083724;28;20043;-81
2022/03/09 02:56:16;;;;;;;6.60;3.50;;;1.50;77.30;;;;;;5068342;28;20047;-79
2022/03/09 02:58:44;;;;;;;5.40;3.20;;;1.40;77.30;;;;;;5065718;28;20395;-81
2022/03/09 03:01:13;;;;;;;8.20;3.80;;;1.40;77.40;;;;;;5050623;28;20032;-80
2022/03/09 03:03:41;;;;;;;6.70;3.40;;;1.30;78.10;;;;;;5067688;28;20456;-79
2022/03/09 03:06:08;;;;;;;6.67;3.40;;;1.30;77.70;;;;;;5068078;28;20040;-78
2022/03/09 03:08:35;;;;;;;7.20;3.93;;;1.30;77.70;;;;;;5035321;28;20023;-78
2022/03/09 03:11:02;;;;;;;8.23;4.23;;;1.20;77.70;;;;;;5085814;28;20011;-78
2022/03/09 03:13:28;;;;;;;6.83;3.33;;;1.20;77.80;;;;;;5057294;28;20036;-78
2022/03/09 03:15:55;;;;;;;5.23;2.70;;;1.10;77.90;;;;;;5087502;28;20036;-78
2022/03/09 03:18:22;;;;;;;5.17;2.50;;;1.10;78.00;;;;;;5072092;28;20043;-79
2022/03/09 03:20:54;;;;;;;7.00;3.60;;;1.10;78.10;;;;;;5056614;28;20028;-79
2022/03/09 03:23:22;;;;;;;6.80;3.37;;;1.00;78.30;;;;;;5071653;28;20044;-78
2022/03/09 03:25:54;;;;;;;7.97;3.97;;;1.10;78.60;;;;;;5053635;28;20040;-79
2022/03/09 03:28:22;;;;;;;7.97;3.23;;;1.00;78.70;;;;;;5089312;28;20096;-79
2022/03/09 03:30:50;;;;;;;9.23;4.20;;;1.00;78.80;;;;;;5088033;28;20043;-81
2022/03/09 03:33:21;;;;;;;6.60;3.10;;;0.90;78.90;;;;;;5089015;28;20023;-78
2022/03/09 03:35:49;;;;;;;7.20;4.20;;;0.90;78.90;;;;;;5087385;28;20491;-80
2022/03/09 03:38:16;;;;;;;7.60;4.53;;;0.90;79.20;;;;;;5087251;28;21115;-79
2022/03/09 03:40:48;;;;;;;6.57;3.77;;;0.80;79.50;;;;;;5073410;28;20035;-82
2022/03/09 03:43:24;;;;;;;7.20;2.83;;;0.80;79.50;;;;;;5057007;28;20040;-81
2022/03/09 03:45:54;;;;;;;7.50;3.63;;;0.80;79.50;;;;;;5071440;28;20031;-84
2022/03/09 03:48:29;;;;;;;6.00;3.10;;;0.80;79.60;;;;;;5087622;28;20055;-86
2022/03/09 03:50:57;;;;;;;5.40;2.93;;;0.80;79.50;;;;;;5087131;28;20125;-77
2022/03/09 03:53:30;;;;;;;6.40;3.57;;;0.90;79.60;;;;;;5085004;28;20024;-79
2022/03/09 03:55:58;;;;;;;7.43;3.60;;;0.90;79.50;;;;;;5086398;28;20047;-79
2022/03/09 03:58:41;;;;;;;6.80;3.63;;;0.90;79.60;;;;;;5090767;28;20047;-79
2022/03/09 04:01:12;;;;;;;6.53;3.60;;;0.90;79.70;;;;;;5088155;28;20040;-78
2022/03/09 04:03:58;;;;;;;6.67;3.83;;;0.90;79.70;;;;;;5082770;28;20048;-78
2022/03/09 04:06:57;;;;;;;5.00;2.67;;;0.80;79.80;;;;;;5075234;28;20055;-80
2022/03/09 04:09:26;;;;;;;6.77;3.30;;;0.80;79.80;;;;;;5072881;28;20051;-78
2022/03/09 04:12:01;;;;;;;12.00;3.37;;;0.70;79.80;;;;;;5056581;28;20037;-77
2022/03/09 04:14:31;;;;;;;7.50;3.37;;;0.70;80.00;;;;;;5089239;28;20051;-79
2022/03/09 04:17:01;;;;;;;5.93;3.53;;;0.70;80.20;;;;;;5071953;28;20138;-79
2022/03/09 04:19:29;;;;;;;6.47;3.50;;;0.60;80.30;;;;;;5072331;28;20395;-80
2022/03/09 04:21:55;;;;;;;7.10;3.60;;;0.60;80.40;;;;;;5051387;28;20043;-79
2022/03/09 04:24:23;;;;;;;8.33;3.77;;;0.60;80.50;;;;;;5082951;28;20031;-81
2022/03/09 04:27:09;;;;;;;10.37;4.17;;;0.60;80.60;;;;;;5082315;28;20056;-83
2022/03/09 04:29:38;;;;;;;9.30;3.70;;;0.60;80.60;;;;;;5072397;28;20478;-81
2022/03/09 04:32:09;;;;;;;6.43;3.53;;;0.50;80.60;;;;;;5076107;28;20266;-79
2022/03/09 04:34:39;;;;;;;8.68;4.47;;;0.60;80.90;;;;;;5077273;28;20040;-81
2022/03/09 04:37:08;;;;;;;10.37;4.80;;;0.60;81.10;;;;;;5061571;28;20040;-84
2022/03/09 04:39:34;;;;;;;7.33;3.47;;;0.60;81.10;;;;;;5058417;28;20028;-79
2022/03/09 04:42:03;;;;;;;6.40;2.83;;;0.60;81.00;;;;;;5053957;28;20555;-80
2022/03/09 04:44:30;;;;;;;4.53;2.70;;;0.60;81.00;;;;;;5061247;28;20036;-80
2022/03/09 04:46:56;;;;;;;7.33;3.97;;;0.70;81.00;;;;;;5035153;28;20039;-80
2022/03/09 04:49:23;;;;;;;7.20;3.60;;;0.60;81.00;;;;;;5048407;28;20040;-80
2022/03/09 04:51:49;;;;;;;6.03;2.70;;;0.60;81.00;;;;;;5046026;28;20483;-78
2022/03/09 04:54:16;;;;;;;6.00;3.47;;;0.60;81.10;;;;;;5083508;28;20032;-79
2022/03/09 04:56:42;;;;;;;7.70;2.90;;;0.60;81.30;;;;;;5048552;28;20533;-81
2022/03/09 04:59:09;;;;;;;8.50;3.90;;;0.60;81.40;;;;;;5034913;28;20498;-78
2022/03/09 05:01:35;;;;;;;6.77;3.57;;;0.60;81.40;;;;;;5098389;27;20487;-82
2022/03/09 05:04:02;;;;;;;5.97;3.17;;;0.60;81.50;;;;;;5049979;28;20055;-82
2022/03/09 05:06:28;;;;;;;7.10;3.03;;;0.50;81.50;;;;;;5050102;28;21318;-82
2022/03/09 05:08:55;;;;;;;8.13;3.17;;;0.60;81.60;;;;;;5048192;28;20035;-82
2022/03/09 05:11:21;;;;;;;6.70;3.23;;;0.60;81.60;;;;;;5049736;28;20040;-82
2022/03/09 05:13:47;;;;;;;6.60;3.53;;;0.50;81.60;;;;;;5066352;28;20040;-83
2022/03/09 05:16:14;;;;;;;6.13;3.50;;;0.50;81.80;;;;;;5050148;28;20021;-82
2022/03/09 05:18:41;;;;;;;7.50;3.53;;;0.50;81.90;;;;;;5066101;28;20032;-77
2022/03/09 05:21:09;;;;;;;6.00;3.60;;;0.60;82.00;;;;;;5043724;28;20485;-78
2022/03/09 05:23:35;;;;;;;5.70;2.83;;;0.60;82.00;;;;;;5083007;28;20044;-79
2022/03/09 05:26:02;;;;;;;6.20;3.07;;;0.60;82.00;;;;;;5067068;28;20470;-79
2022/03/09 05:28:29;;;;;;;5.47;2.77;;;0.60;82.00;;;;;;5081483;28;20471;-79
2022/03/09 05:30:55;;;;;;;5.20;3.00;;;0.60;82.00;;;;;;5049056;28;20036;-79
2022/03/09 05:33:38;;;;;;;8.07;2.90;;;0.60;82.00;;;;;;5075150;28;20039;-79
2022/03/09 05:36:08;;;;;;;6.97;3.90;;;0.60;82.20;;;;;;5066670;28;20036;-79
2022/03/09 05:38:43;;;;;;;5.20;3.27;;;0.60;82.20;;;;;;5085497;28;20020;-79
2022/03/09 05:41:12;;;;;;;10.90;3.03;;;0.70;82.20;;;;;;5086694;28;20085;-80
2022/03/09 05:43:42;;;;;;;6.87;4.23;;;0.70;82.30;;;;;;5075438;28;20032;-80
2022/03/09 05:46:18;;;;;;;6.73;2.90;;;0.70;82.40;;;;;;5068773;28;20066;-79
2022/03/09 05:49:25;;;;;;;7.90;4.07;;;0.70;82.40;;;;;;5085933;28;20059;-79
2022/03/09 05:52:12;;;;;;;10.70;4.60;;;0.70;82.60;;;;;;5085148;28;20395;-80
2022/03/09 05:54:39;;;;;;;7.27;3.37;;;0.70;82.60;;;;;;5083111;28;20028;-79
2022/03/09 05:57:06;;;;;;;7.17;3.40;;;0.70;82.60;;;;;;5082866;28;20462;-79
2022/03/09 05:59:44;;;;;;;5.70;3.10;;;0.70;82.70;;;;;;5084389;28;20039;-80
2022/03/09 06:02:17;;;;;;;7.80;3.37;;;0.70;82.70;;;;;;5084217;28;20032;-79
2022/03/09 06:04:47;;;;;;;4.70;2.53;;;0.70;82.60;;;;;;5097927;27;20051;-79
2022/03/09 06:07:27;;;;;;;5.80;2.60;;;0.70;82.60;;;;;;5087891;28;20450;-81
2022/03/09 06:09:59;;;;;;;6.90;2.90;;;0.60;82.70;;;;;;5059261;28;20036;-81
2022/03/09 06:12:25;;;;;;;7.13;3.90;;;0.60;82.70;;;;;;5052147;28;20376;-81
2022/03/09 06:14:52;;;;;;;5.77;2.80;;;0.60;82.90;;;;;;5083956;28;20052;-77
2022/03/09 06:17:22;;;;;;;6.37;3.00;;;0.60;82.90;;;;;;5092146;27;20039;-80
2022/03/09 06:19:49;;;;;;;6.50;2.90;;;0.60;83.00;;;;;;5066016;28;20071;-80
2022/03/09 06:22:31;;;;;;;6.17;2.83;;;0.60;82.90;;;;;;5078503;28;20068;-79
2022/03/09 06:24:59;;;;;;;6.50;3.00;;;0.60;82.90;;;;;;5085076;28;20032;-79
2022/03/09 06:27:26;;;;;;;10.07;5.37;;;0.70;83.00;;;;;;5050197;28;20039;-79
2022/03/09 06:29:57;;;;;;;9.70;4.43;;;0.70;82.90;;;;;;5050026;28;20040;-79
2022/03/09 06:32:28;;;;;;;7.63;3.40;;;0.80;83.10;;;;;;5084334;28;20035;-79
2022/03/09 06:34:54;;;;;;;8.97;4.23;;;0.90;83.00;;;;;;5033632;28;20028;-79
2022/03/09 06:37:21;;;;;;;9.03;3.87;;;1.00;82.90;;;;;;5059695;28;20052;-79
2022/03/09 06:39:47;;;;;;;9.57;4.17;;;1.10;82.90;;;;;;5063968;28;20035;-80
2022/03/09 06:42:14;;;;;;;8.23;4.50;;;1.20;82.80;;;;;;5081215;28;20367;-79
2022/03/09 06:44:43;;;;;;;9.77;4.63;;;1.30;82.70;;;;;;5067336;28;20032;-81
2022/03/09 06:47:14;;;;;;;9.43;4.30;;;1.40;82.60;;;;;;5066515;28;20048;-80
2022/03/09 06:49:46;;;;;;;6.88;2.85;;;1.60;82.50;;;;;;5053060;28;20032;-79
2022/03/09 06:52:13;;;;;;;8.07;3.77;;;1.70;82.40;;;;;;5072014;28;20040;-80
2022/03/09 06:54:40;;;;;;;7.57;4.33;;;1.80;82.20;;;;;;5056150;28;20039;-80
2022/03/09 06:57:07;;;;;;;8.70;4.60;;;2.00;82.20;;;;;;5065017;28;20028;-80
2022/03/09 06:59:37;;;;;;;8.67;5.37;;;2.10;82.00;;;;;;5071719;28;20031;-79
2022/03/09 07:02:04;;;;;;;9.80;4.53;;;2.20;81.90;;;;;;5072590;28;20036;-80
2022/03/09 07:04:31;;;;;;;9.70;5.20;;;2.40;81.80;;;;;;5037289;28;20028;-81
2022/03/09 07:06:57;;;;;;;12.07;5.10;;;2.50;81.70;;;;;;5070858;28;20051;-81
2022/03/09 07:09:24;;;;;;;10.23;6.03;;;2.70;81.60;;;;;;5070262;28;20371;-81
2022/03/09 07:11:57;;;;;;;10.23;5.47;;;2.80;81.30;;;;;;5071144;28;20209;-81
2022/03/09 07:14:24;;;;;;;;;;;2.90;81.10;;;;;;5053630;28;20032;-81
2022/03/09 07:16:50;;;;;;;10.13;5.57;;;3.00;80.90;;;;;;5069395;28;19920;-81
2022/03/09 07:19:20;;;;;;;12.13;6.80;;;3.10;80.50;;;;;;5040601;28;20045;-80
2022/03/09 07:21:46;;;;;;;13.77;5.63;;;3.20;80.50;;;;;;5083473;28;20483;-80
2022/03/09 07:24:13;;;;;;;9.63;5.80;;;3.40;80.20;;;;;;5053420;28;20024;-81
2022/03/09 07:26:41;;;;;;;11.03;6.00;;;3.50;80.00;;;;;;5071468;28;20040;-81
2022/03/09 07:29:11;;;;;;;12.13;7.03;;;3.60;79.60;;;;;;5054730;28;20032;-81
2022/03/09 07:31:38;;;;;;;12.47;5.77;;;3.70;79.20;;;;;;5055099;28;20024;-81
2022/03/09 07:34:06;;;;;;;10.10;5.70;;;3.80;79.10;;;;;;5051547;28;20012;-81
2022/03/09 07:36:32;;;;;;;12.13;6.63;;;3.90;79.10;;;;;;5063582;28;20036;-81
2022/03/09 07:39:05;;;;;;;18.93;7.17;;;4.00;79.00;;;;;;5056262;28;20032;-81
2022/03/09 07:41:31;;;;;;;12.27;6.80;;;4.10;78.60;;;;;;5054629;28;20039;-81
2022/03/09 07:43:58;;;;;;;12.07;7.00;;;4.20;78.50;;;;;;5070003;28;20024;-81
2022/03/09 07:46:25;;;;;;;11.80;8.03;;;4.30;78.30;;;;;;5069831;28;20028;-80
2022/03/09 07:48:51;;;;;;;15.13;7.93;;;4.40;78.00;;;;;;5051520;28;20032;-80
2022/03/09 07:51:18;;;;;;;11.00;6.53;;;4.40;77.20;;;;;;5086265;28;20106;-81
2022/03/09 07:53:45;;;;;;;11.87;6.47;;;4.50;77.10;;;;;;5051570;28;20447;-79
2022/03/09 07:56:12;;;;;;;11.77;6.30;;;4.60;77.20;;;;;;5064823;28;20040;-78
2022/03/09 07:58:39;;;;;;;11.70;6.70;;;4.80;77.00;;;;;;5073265;28;20039;-83
2022/03/09 08:01:06;;;;;;;20.40;8.93;;;4.90;76.20;;;;;;5064218;28;20411;-79
2022/03/09 08:03:33;;;;;;;10.07;6.27;;;5.00;75.80;;;;;;5065846;28;20360;-80
2022/03/09 08:06:03;;;;;;;11.47;6.90;;;5.00;75.70;;;;;;5050985;28;20032;-80
2022/03/09 08:08:29;;;;;;;11.67;6.37;;;5.10;75.50;;;;;;5052635;28;20048;-80
2022/03/09 08:10:59;;;;;;;14.23;7.20;;;5.20;75.60;;;;;;5052684;28;20057;-80
2022/03/09 08:13:25;;;;;;;10.57;5.87;;;5.30;75.40;;;;;;5051783;28;20074;-80
2022/03/09 08:15:55;;;;;;;9.80;6.10;;;5.40;75.30;;;;;;5047822;28;20071;-80
2022/03/09 08:18:25;;;;;;;12.20;5.87;;;5.40;75.20;;;;;;5077564;27;20043;-79
2022/03/09 08:20:51;;;;;;;9.83;6.27;;;5.50;75.10;;;;;;5069670;28;20048;-80
2022/03/09 08:23:18;;;;;;;11.13;7.10;;;5.60;75.10;;;;;;5067385;28;20024;-80
2022/03/09 08:25:44;;;;;;;11.37;7.50;;;5.80;75.00;;;;;;5068954;28;20024;-80
2022/03/09 08:28:13;;;;;;;15.07;8.20;;;5.90;74.50;;;;;;5021884;28;20036;-80
2022/03/09 08:30:40;;;;;;;13.43;7.50;;;5.90;73.40;;;;;;5056114;28;20032;-80
2022/03/09 08:33:16;;;;;;;12.50;6.80;;;6.00;73.20;;;;;;5039830;28;20399;-80
2022/03/09 08:35:45;;;;;;;15.43;8.33;;;6.00;73.10;;;;;;5084449;28;20790;-80
2022/03/09 08:38:12;;;;;;;17.07;7.93;;;6.10;72.80;;;;;;5064335;28;20419;-80
2022/03/09 08:40:41;;;;;;;12.53;6.77;;;6.10;73.00;;;;;;5065694;28;20035;-80
2022/03/09 08:43:08;;;;;;;17.53;8.90;;;6.30;73.20;;;;;;5083840;28;20020;-80
2022/03/09 08:45:34;;;;;;;13.53;7.67;;;6.40;73.00;;;;;;5018926;28;20028;-80
2022/03/09 08:48:01;;;;;;;16.03;7.70;;;6.40;72.80;;;;;;5065770;28;20036;-80
2022/03/09 08:50:27;;;;;;;13.10;7.83;;;6.50;72.80;;;;;;5052727;27;20035;-80
2022/03/09 08:52:54;;;;;;;14.30;8.13;;;6.50;72.50;;;;;;5038736;27;20043;-80
2022/03/09 08:55:20;;;;;;;14.00;7.53;;;6.60;72.60;;;;;;5054648;28;20506;-80
2022/03/09 08:57:50;;;;;;;10.50;6.72;;;6.70;72.30;;;;;;5071328;28;20039;-80
2022/03/09 09:00:17;;;;;;;15.90;7.97;;;6.80;72.70;;;;;;5038501;28;20047;-80
2022/03/09 09:02:43;;;;;;;11.07;6.95;;;6.90;72.40;;;;;;5034631;28;20043;-80
2022/03/09 09:05:10;;;;;;;14.50;8.13;;;7.00;72.50;;;;;;5051806;28;20035;-79
2022/03/09 09:07:43;;;;;;;12.43;7.10;;;7.10;72.40;;;;;;5073577;28;20047;-79
2022/03/09 09:10:10;;;;;;;11.68;7.68;;;7.20;72.60;;;;;;5069191;27;20023;-80
2022/03/09 09:12:36;;;;;;;11.77;7.67;;;7.30;72.70;;;;;;5066703;27;20050;-79
2022/03/09 09:15:06;;;;;;;11.52;7.22;;;7.40;72.80;;;;;;5082024;27;20026;-79
2022/03/09 09:17:34;;;;;;;11.70;7.47;;;7.50;72.80;;;;;;5085079;27;20019;-81
2022/03/09 09:20:00;;;;;;;11.15;6.95;;;7.60;72.20;;;;;;5087219;28;20032;-79
2022/03/09 09:22:27;;;;;;;12.48;6.78;;;7.70;71.50;;;;;;5106476;27;20038;-81
2022/03/09 09:24:55;;;;;;;14.80;7.25;;;7.90;71.70;;;;;;5067527;28;20036;-80
2022/03/09 09:27:24;;;;;;;16.33;8.75;;;8.00;71.40;;;;;;5066937;28;20059;-82
2022/03/09 09:29:51;;;;;;;11.32;7.13;;;8.10;70.00;;;;;;5052040;28;20043;-77
2022/03/09 09:32:17;;;;;;;12.20;7.88;;;8.20;69.70;;;;;;5052158;28;20569;-79
2022/03/09 09:34:44;;;;;;;12.60;7.45;;;8.30;70.00;;;;;;5084915;28;20442;-79
2022/03/09 09:37:10;;;;;;;14.90;7.60;;;8.40;69.60;;;;;;5035988;27;20066;-78
2022/03/09 09:39:37;;;;;;;16.83;8.55;;;8.50;68.60;;;;;;5065185;27;20468;-79
2022/03/09 09:42:12;;;;;;;11.98;7.22;;;8.60;68.20;;;;;;5081288;28;20027;-79
2022/03/09 09:44:43;;;;;;;9.80;6.68;;;8.80;67.60;;;;;;5048942;28;20032;-79
2022/03/09 09:47:14;;;;;;;12.20;7.53;;;8.80;66.80;;;;;;5052096;27;20035;-80
2022/03/09 09:49:41;;;;;;;13.30;7.03;;;8.90;66.50;;;;;;5072304;27;20331;-80
2022/03/09 09:52:08;;;;;;;12.02;7.53;;;9.00;66.20;;;;;;5089601;27;20043;-81
2022/03/09 09:54:34;;;;;;;11.65;7.43;;;9.10;66.10;;;;;;5073310;28;20036;-80
2022/03/09 09:57:02;;;;;;;12.55;7.07;;;9.20;65.80;;;;;;5102133;27;20031;-80
2022/03/09 09:59:31;;;;;;;13.15;7.53;;;9.30;65.10;;;;;;5069706;28;20039;-80
2022/03/09 10:01:58;;;;;;;12.20;7.45;;;9.40;65.00;;;;;;5077856;27;20032;-80
2022/03/09 10:04:27;;;;;;;11.00;6.60;;;9.50;64.10;;;;;;5056696;28;20157;-80
2022/03/09 10:06:53;;;;;;;10.85;7.00;;;9.50;64.40;;;;;;5057115;28;20494;-80
2022/03/09 10:09:40;;;;;;;13.40;6.93;;;9.70;64.60;;;;;;5053696;27;20064;-81
2022/03/09 10:12:13;;;;;;;16.13;7.10;;;9.90;63.90;;;;;;5071581;27;20031;-81
2022/03/09 10:14:51;;;;;;;11.13;7.50;;;10.00;63.30;;;;;;5071557;27;20565;-80
2022/03/09 10:17:19;;;;;;;11.90;7.38;;;10.10;63.40;;;;;;5072720;28;20028;-80
2022/03/09 10:19:51;;;;;;;12.45;8.13;;;10.30;62.90;;;;;;5054015;28;20390;-79
2022/03/09 10:22:46;;;;;;;13.02;7.78;;;10.50;63.10;;;;;;5074936;28;20047;-80
2022/03/09 10:25:19;;;;;;;12.07;6.93;;;10.70;63.20;;;;;;5048070;28;20034;-80
2022/03/09 10:27:51;;;;;;;15.30;6.72;;;11.00;63.50;;;;;;5072418;28;20035;-80
2022/03/09 10:30:31;;;;;;;10.55;6.65;;;11.20;64.50;;;;;;5052231;28;20024;-80
2022/03/09 10:33:00;;;;;;;11.93;7.85;;;11.40;64.00;;;;;;5088796;28;20028;-80
2022/03/09 10:35:29;;;;;;;11.02;6.57;;;11.80;63.30;;;;;;5086747;28;20454;-80
2022/03/09 10:38:04;;;;;;;15.00;7.78;;;12.20;62.80;;;;;;5070331;28;20019;-80
2022/03/09 10:40:38;;;;;;;10.38;7.70;;;12.50;62.20;;;;;;5088958;28;20035;-80
2022/03/09 10:43:23;;;;;;;12.23;7.97;;;12.80;62.50;;;;;;5079592;28;20123;-79
2022/03/09 10:45:56;;;;;;;12.18;7.30;;;13.30;61.40;;;;;;5081262;28;20015;-80
2022/03/09 10:48:25;;;;;;;;;;;13.70;60.80;;;;;;5060037;28;20041;-78
2022/03/09 10:50:53;;;;;;;12.70;7.75;;;14.00;60.90;;;;;;5047314;28;20360;-79
2022/03/09 10:53:21;;;;;;;35.40;21.30;;;14.30;60.40;;;;;;5058937;28;20040;-78
2022/03/09 10:55:51;;;;;;;22.33;15.30;;;14.60;59.50;;;;;;5045414;28;20043;-79
2022/03/09 10:58:22;;;;;;;14.23;10.07;;;14.90;58.80;;;;;;5078427;28;20031;-79
2022/03/09 11:00:56;;;;;;;13.90;9.55;;;15.30;57.50;;;;;;5058981;28;20036;-80
2022/03/09 11:03:33;;;;;;;12.13;8.93;;;15.70;56.00;;;;;;5076651;28;20016;-78
2022/03/09 11:06:02;;;;;;;9.30;8.20;;;16.00;53.00;;;;;;5077773;28;20043;-78
2022/03/09 11:08:34;;;;;;;12.30;9.98;;;16.20;52.20;;;;;;5096078;28;20035;-78
2022/03/09 11:11:02;;;;;;;13.57;9.55;;;16.40;52.10;;;;;;5078731;28;20012;-78
2022/03/09 11:13:32;;;;;;;15.60;9.90;;;16.60;51.20;;;;;;5063573;28;20024;-78
2022/03/09 11:15:59;;;;;;;13.10;9.20;;;16.80;50.50;;;;;;5067073;28;20035;-78
2022/03/09 11:18:28;;;;;;;11.07;8.68;;;17.00;50.00;;;;;;5044329;28;20063;-79
2022/03/09 11:21:03;;;;;;;15.32;11.02;;;17.20;49.80;;;;;;5097728;28;20017;-79
2022/03/09 11:23:34;;;;;;;15.68;9.50;;;17.30;47.90;;;;;;5088791;28;20411;-79
2022/03/09 11:26:11;;;;;;;13.73;9.93;;;17.40;48.30;;;;;;5064369;28;20031;-79
2022/03/09 11:28:40;;;;;;;12.73;9.25;;;17.60;48.30;;;;;;5082338;28;20020;-79
2022/03/09 11:31:09;;;;;;;13.65;9.65;;;17.90;47.30;;;;;;5104231;27;20027;-79
2022/03/09 11:33:43;;;;;;;12.75;9.65;;;18.00;47.00;;;;;;5063094;28;20046;-78
2022/03/09 11:36:27;;;;;;;11.40;10.13;;;18.20;46.40;;;;;;5080436;27;20023;-79
2022/03/09 11:38:56;;;;;;;16.13;10.55;;;18.30;44.90;;;;;;5096654;27;20027;-79
2022/03/09 11:41:26;;;;;;;14.70;10.77;;;18.40;44.80;;;;;;5059063;28;20030;-79
2022/03/09 11:44:14;;;;;;;14.77;9.95;;;18.30;44.30;;;;;;5065888;28;20028;-79
2022/03/09 11:47:07;;;;;;;14.73;11.05;;;18.40;44.50;;;;;;5067145;27;20043;-79
2022/03/09 11:49:36;;;;;;;15.73;11.32;;;18.60;43.80;;;;;;5050900;28;20035;-79
2022/03/09 11:52:12;;;;;;;15.32;10.82;;;18.50;42.50;;;;;;5060882;28;20114;-79
2022/03/09 11:54:49;;;;;;;16.17;12.50;;;18.40;43.10;;;;;;5081798;28;20024;-78
2022/03/09 11:57:17;;;;;;;16.17;11.20;;;18.40;43.70;;;;;;5080479;28;20019;-78
2022/03/09 12:00:14;;;;;;;12.73;10.23;;;18.40;43.40;;;;;;5060653;28;20075;-79
2022/03/09 12:02:43;;;;;;;14.00;11.23;;;18.40;42.80;;;;;;5063643;28;20031;-79
2022/03/09 12:05:24;;;;;;;14.18;11.05;;;18.30;43.10;;;;;;5083624;28;20027;-79
2022/03/09 12:08:06;;;;;;;14.52;11.55;;;18.40;43.40;;;;;;5080212;28;20110;-77
2022/03/09 12:10:55;;;;;;;17.13;13.35;;;18.60;42.80;;;;;;5047951;28;20038;-79
2022/03/09 12:13:44;;;;;;;15.35;12.27;;;18.70;41.20;;;;;;5081522;28;20020;-82
2022/03/09 12:16:14;;;;;;;17.50;12.43;;;18.70;41.90;;;;;;5100030;27;20015;-80
2022/03/09 12:18:45;;;;;;;15.95;12.15;;;19.00;41.70;;;;;;5085272;27;20031;-77
2022/03/09 12:21:18;;;;;;;16.02;13.27;;;19.40;41.20;;;;;;5097192;27;20024;-79
2022/03/09 12:24:06;;;;;;;17.15;12.43;;;19.60;40.00;;;;;;5079428;28;20027;-82
2022/03/09 12:26:42;;;;;;;16.75;13.32;;;19.70;40.50;;;;;;5071157;27;20391;-83
2022/03/09 12:29:20;;;;;;;17.13;13.80;;;20.00;39.30;;;;;;5066719;28;20030;-81
2022/03/09 12:32:05;;;;;;;16.90;13.00;;;20.00;39.40;;;;;;5086673;27;20038;-82
2022/03/09 12:34:46;;;;;;;16.27;13.30;;;20.40;39.80;;;;;;5053431;27;20031;-78
2022/03/09 12:37:21;;;;;;;19.17;13.32;;;20.70;38.70;;;;;;5101951;27;20044;-81
2022/03/09 12:40:03;;;;;;;17.45;13.32;;;20.80;37.50;;;;;;5039460;27;20047;-81
2022/03/09 12:42:37;;;;;;;18.17;13.60;;;20.70;37.50;;;;;;5069018;27;20040;-82
2022/03/09 12:45:04;;;;;;;19.25;13.52;;;21.00;38.20;;;;;;5068851;27;20510;-84
2022/03/09 12:47:35;;;;;;;19.90;13.77;;;21.50;38.10;;;;;;5069972;28;20046;-83
2022/03/09 12:50:02;;;;;;;19.58;14.00;;;21.80;36.90;;;;;;5055823;27;20031;-82
2022/03/09 12:52:44;;;;;;;19.30;13.63;;;21.90;36.30;;;;;;5071082;28;20043;-81
2022/03/09 12:55:17;;;;;;;19.83;14.40;;;22.10;36.70;;;;;;5053311;27;20031;-81
2022/03/09 12:57:53;;;;;;;18.98;13.13;;;22.20;35.50;;;;;;5068772;27;20020;-81
2022/03/09 13:00:25;;;;;;;20.45;14.38;;;22.30;36.00;;;;;;5071763;28;20422;-82
2022/03/09 13:03:02;;;;;;;18.05;15.30;;;22.30;35.40;;;;;;5040661;27;20035;-81
2022/03/09 13:05:31;;;;;;;18.77;14.17;;;22.30;35.20;;;;;;5085876;28;20466;-83